Sawyer County Airport
KHYR : rendu visible

Aérodrome :











RETROUVEZ-NOUS SUR...

 
LOGIN :

S'inscrire | Disclaimer

   EN    FR    IT 

 









Légende :    VFR   VFR Marginal   IFR   IFR Intensif   IFR Très Intensif
Visi : 
Plafond : 
>= 8 km
>= 3000ft
5 à 8 km
1000 à 3000 ft
1500m à 5 km
500 à 1000 ft
800 à 1500m
200 à 500 ft
< 800m
< 200 ft
Symboles :   Orages  Brouillard  Fortes neiges  Fortes précipitations  Vent > 20 kt






- Altitude de l'aérodrome : 1216 ft


KHYR - Sawyer County

DERNIER METAR :
  • 202353Z AUTO 21008KT 10SM CLR M11/M22 A3050 RMK AO2 SLP368 T11061222 11083 21139 56016

METARs EXPIRÉS :
  • 202253Z AUTO 22009G16KT 10SM CLR M09/M22 A3052 RMK AO2 SLP373 T10891222

TAF KHYR
Valide du 21 à 00h jusqu'au 22 à 00h UTC


202320Z 2100/2124 23008KT P6SM SKC
FM210300 22006KT P6SM SKC WS020/26035KT
FM211700 22011G21KT P6SM SKC



MET'MAP, la Météo Aéronautique d'un coup d'oeil ! - Copyright ORBIFLY Décembre 2007 - Disclaimer

ORBIFLY MET'MAP TEAM :

Programmation & Développement : Alexandra Zaïnal
Sur une idée originale de : Baudouin d'Aumeries
Assistance à la programmation : Marc-Olivier Méhu
Soutien technique & logistique : Manuel Goepfert

Contact : metmap@orbifly.com




SOURCES & CREDITS :

   NOAA       Earth
Advisory